sensor_id;sensor_type;location;lat;lon;timestamp;pressure;altitude;pressure_sealevel;temperature;humidity
7832;BME280;3961;42.058;25.586;2023-03-20T00:00:29;62987.03;;;6.89;100.00
7832;BME280;3961;42.058;25.586;2023-03-20T00:02:56;62977.84;;;6.81;100.00
7832;BME280;3961;42.058;25.586;2023-03-20T00:05:23;62973.00;;;6.74;100.00
7832;BME280;3961;42.058;25.586;2023-03-20T00:07:50;62942.75;;;6.50;100.00
7832;BME280;3961;42.058;25.586;2023-03-20T00:10:17;62943.91;;;6.51;100.00
7832;BME280;3961;42.058;25.586;2023-03-20T00:12:43;62945.75;;;6.48;100.00
7832;BME280;3961;42.058;25.586;2023-03-20T00:15:35;62940.31;;;6.41;100.00
7832;BME280;3961;42.058;25.586;2023-03-20T00:18:03;62930.47;;;6.37;100.00
7832;BME280;3961;42.058;25.586;2023-03-20T00:20:29;62908.06;;;6.17;100.00
7832;BME280;3961;42.058;25.586;2023-03-20T00:22:55;62925.84;;;6.33;100.00
7832;BME280;3961;42.058;25.586;2023-03-20T00:25:23;62922.97;;;6.30;100.00
7832;BME280;3961;42.058;25.586;2023-03-20T00:27:49;62929.31;;;6.36;100.00
7832;BME280;3961;42.058;25.586;2023-03-20T00:30:21;62924.69;;;6.32;100.00
7832;BME280;3961;42.058;25.586;2023-03-20T00:32:49;62964.94;;;6.67;100.00
7832;BME280;3961;42.058;25.586;2023-03-20T00:37:45;62944.16;;;6.54;100.00
7832;BME280;3961;42.058;25.586;2023-03-20T00:40:11;62932.19;;;6.38;100.00
7832;BME280;3961;42.058;25.586;2023-03-20T00:42:37;62922.31;;;6.34;100.00
7832;BME280;3961;42.058;25.586;2023-03-20T00:45:03;62935.38;;;6.39;100.00
7832;BME280;3961;42.058;25.586;2023-03-20T00:47:37;62937.34;;;6.43;100.00
7832;BME280;3961;42.058;25.586;2023-03-20T00:50:28;62960.00;;;6.65;100.00
7832;BME280;3961;42.058;25.586;2023-03-20T00:52:54;62981.84;;;6.85;100.00
7832;BME280;3961;42.058;25.586;2023-03-20T00:55:23;63002.81;;;7.05;100.00
7832;BME280;3961;42.058;25.586;2023-03-20T00:57:53;63003.13;;;7.03;100.00
7832;BME280;3961;42.058;25.586;2023-03-20T01:03:01;63004.06;;;7.02;100.00
7832;BME280;3961;42.058;25.586;2023-03-20T01:05:30;63013.84;;;7.11;100.00
7832;BME280;3961;42.058;25.586;2023-03-20T01:07:55;63005.78;;;7.03;100.00
7832;BME280;3961;42.058;25.586;2023-03-20T01:10:27;62968.41;;;6.70;100.00
7832;BME280;3961;42.058;25.586;2023-03-20T01:12:55;62975.31;;;6.77;100.00
7832;BME280;3961;42.058;25.586;2023-03-20T01:15:24;62969.31;;;6.69;100.00
7832;BME280;3961;42.058;25.586;2023-03-20T01:17:51;62968.88;;;6.76;100.00
7832;BME280;3961;42.058;25.586;2023-03-20T01:20:21;62975.31;;;6.77;100.00
7832;BME280;3961;42.058;25.586;2023-03-20T01:22:47;62945.63;;;6.53;100.00
7832;BME280;3961;42.058;25.586;2023-03-20T01:25:13;62964.03;;;6.69;100.00
7832;BME280;3961;42.058;25.586;2023-03-20T01:27:38;62951.13;;;6.55;100.00
7832;BME280;3961;42.058;25.586;2023-03-20T01:30:17;62901.41;;;6.14;100.00
7832;BME280;3961;42.058;25.586;2023-03-20T01:32:43;62895.66;;;6.09;100.00
7832;BME280;3961;42.058;25.586;2023-03-20T01:35:15;62874.69;;;5.88;100.00
7832;BME280;3961;42.058;25.586;2023-03-20T01:37:41;62875.19;;;5.93;100.00
7832;BME280;3961;42.058;25.586;2023-03-20T01:42:50;62868.06;;;5.84;100.00
7832;BME280;3961;42.058;25.586;2023-03-20T01:45:18;62874.13;;;5.87;100.00
7832;BME280;3961;42.058;25.586;2023-03-20T01:47:46;62887.13;;;5.96;100.00
7832;BME280;3961;42.058;25.586;2023-03-20T01:52:43;62915.75;;;6.26;100.00
7832;BME280;3961;42.058;25.586;2023-03-20T01:55:09;62908.59;;;6.18;100.00
7832;BME280;3961;42.058;25.586;2023-03-20T01:57:35;62914.03;;;6.25;100.00
7832;BME280;3961;42.058;25.586;2023-03-20T02:00:08;62909.41;;;6.21;100.00
7832;BME280;3961;42.058;25.586;2023-03-20T02:02:37;62916.66;;;6.25;100.00
7832;BME280;3961;42.058;25.586;2023-03-20T02:05:08;62925.53;;;6.35;100.00
7832;BME280;3961;42.058;25.586;2023-03-20T02:07:34;62936.22;;;6.42;100.00
7832;BME280;3961;42.058;25.586;2023-03-20T02:10:05;62914.34;;;6.23;100.00
7832;BME280;3961;42.058;25.586;2023-03-20T02:12:33;62858.38;;;5.71;100.00
7832;BME280;3961;42.058;25.586;2023-03-20T02:14:59;62848.84;;;5.65;100.00
7832;BME280;3961;42.058;25.586;2023-03-20T02:17:25;62889.09;;;6.00;100.00
7832;BME280;3961;42.058;25.586;2023-03-20T02:22:58;62874.38;;;5.90;100.00
7832;BME280;3961;42.058;25.586;2023-03-20T02:48:12;62784.91;;;5.06;100.00
7832;BME280;3961;42.058;25.586;2023-03-20T02:50:49;62803.50;;;5.25;100.00
7832;BME280;3961;42.058;25.586;2023-03-20T03:01:29;62743.81;;;4.72;100.00
7832;BME280;3961;42.058;25.586;2023-03-20T03:04:28;62761.03;;;4.87;100.00
7832;BME280;3961;42.058;25.586;2023-03-20T03:06:57;62754.28;;;4.88;100.00
7832;BME280;3961;42.058;25.586;2023-03-20T03:09:40;62749.56;;;4.77;100.00
7832;BME280;3961;42.058;25.586;2023-03-20T03:12:23;62760.94;;;4.92;100.00
7832;BME280;3961;42.058;25.586;2023-03-20T03:14:54;62767.59;;;4.95;100.00
7832;BME280;3961;42.058;25.586;2023-03-20T03:17:23;62739.56;;;4.66;100.00
7832;BME280;3961;42.058;25.586;2023-03-20T03:19:52;62743.00;;;4.69;100.00
7832;BME280;3961;42.058;25.586;2023-03-20T03:22:19;62733.75;;;4.65;100.00
7832;BME280;3961;42.058;25.586;2023-03-20T03:24:50;62742.69;;;4.71;100.00
7832;BME280;3961;42.058;25.586;2023-03-20T03:27:20;62729.47;;;4.59;100.00
7832;BME280;3961;42.058;25.586;2023-03-20T03:29:51;62744.31;;;4.77;100.00
7832;BME280;3961;42.058;25.586;2023-03-20T03:32:22;62765.03;;;4.91;100.00
7832;BME280;3961;42.058;25.586;2023-03-20T03:34:49;62760.13;;;4.89;100.00
7832;BME280;3961;42.058;25.586;2023-03-20T03:37:28;62738.31;;;4.69;100.00
7832;BME280;3961;42.058;25.586;2023-03-20T03:40:04;62735.78;;;4.65;100.00
7832;BME280;3961;42.058;25.586;2023-03-20T03:42:44;62715.41;;;4.49;100.00
7832;BME280;3961;42.058;25.586;2023-03-20T03:45:16;62748.66;;;4.79;100.00
7832;BME280;3961;42.058;25.586;2023-03-20T03:47:53;62776.19;;;5.03;100.00
7832;BME280;3961;42.058;25.586;2023-03-20T03:50:26;62758.97;;;4.88;100.00
7832;BME280;3961;42.058;25.586;2023-03-20T03:52:56;62726.53;;;4.61;100.00
7832;BME280;3961;42.058;25.586;2023-03-20T03:55:29;62705.66;;;4.41;100.00
7832;BME280;3961;42.058;25.586;2023-03-20T03:58:03;62715.63;;;4.52;100.00
7832;BME280;3961;42.058;25.586;2023-03-20T04:00:31;62710.22;;;4.45;100.00
7832;BME280;3961;42.058;25.586;2023-03-20T04:02:58;62714.91;;;4.44;100.00
7832;BME280;3961;42.058;25.586;2023-03-20T04:05:27;62736.59;;;4.68;100.00
7832;BME280;3961;42.058;25.586;2023-03-20T04:07:58;62744.06;;;4.75;100.00
7832;BME280;3961;42.058;25.586;2023-03-20T04:10:24;62765.03;;;4.91;100.00
7832;BME280;3961;42.058;25.586;2023-03-20T04:12:50;62717.94;;;4.54;100.00
7832;BME280;3961;42.058;25.586;2023-03-20T04:15:16;62747.28;;;4.75;100.00
7832;BME280;3961;42.058;25.586;2023-03-20T04:17:42;62698.84;;;4.30;100.00
7832;BME280;3961;42.058;25.586;2023-03-20T04:20:09;62687.88;;;4.25;100.00
7832;BME280;3961;42.058;25.586;2023-03-20T04:22:35;62708.50;;;4.43;100.00
7832;BME280;3961;42.058;25.586;2023-03-20T04:25:05;62713.09;;;4.47;100.00
7832;BME280;3961;42.058;25.586;2023-03-20T04:27:31;62724.09;;;4.52;100.00
7832;BME280;3961;42.058;25.586;2023-03-20T04:29:56;62718.84;;;4.52;100.00
7832;BME280;3961;42.058;25.586;2023-03-20T04:32:22;62723.75;;;4.54;100.00
7832;BME280;3961;42.058;25.586;2023-03-20T04:34:47;62728.00;;;4.60;100.00
7832;BME280;3961;42.058;25.586;2023-03-20T04:37:13;62695.88;;;4.32;100.00
7832;BME280;3961;42.058;25.586;2023-03-20T04:39:39;62691.97;;;4.24;100.00
7832;BME280;3961;42.058;25.586;2023-03-20T04:42:06;62705.97;;;4.38;100.00
7832;BME280;3961;42.058;25.586;2023-03-20T04:44:32;62705.41;;;4.38;100.00
7832;BME280;3961;42.058;25.586;2023-03-20T04:46:58;62726.38;;;4.54;100.00
7832;BME280;3961;42.058;25.586;2023-03-20T04:49:24;62706.56;;;4.39;100.00
7832;BME280;3961;42.058;25.586;2023-03-20T04:51:50;62720.91;;;4.52;100.00
7832;BME280;3961;42.058;25.586;2023-03-20T04:54:15;62701.06;;;4.36;100.00
7832;BME280;3961;42.058;25.586;2023-03-20T04:56:41;62727.75;;;4.58;100.00
7832;BME280;3961;42.058;25.586;2023-03-20T04:59:06;62713.09;;;4.47;100.00
7832;BME280;3961;42.058;25.586;2023-03-20T05:01:32;62710.81;;;4.45;100.00
7832;BME280;3961;42.058;25.586;2023-03-20T05:03:57;62653.81;;;3.92;100.00
7832;BME280;3961;42.058;25.586;2023-03-20T05:06:29;62691.06;;;4.25;100.00
7832;BME280;3961;42.058;25.586;2023-03-20T05:08:56;62742.91;;;4.73;100.00
7832;BME280;3961;42.058;25.586;2023-03-20T05:11:24;62685.25;;;4.25;100.00
7832;BME280;3961;42.058;25.586;2023-03-20T05:13:50;62707.03;;;4.44;100.00
7832;BME280;3961;42.058;25.586;2023-03-20T05:16:15;62694.75;;;4.31;100.00
7832;BME280;3961;42.058;25.586;2023-03-20T05:18:41;62729.16;;;4.61;100.00
7832;BME280;3961;42.058;25.586;2023-03-20T05:21:07;62718.50;;;4.54;100.00
7832;BME280;3961;42.058;25.586;2023-03-20T05:23:33;62720.66;;;4.49;100.00
7832;BME280;3961;42.058;25.586;2023-03-20T05:25:58;62726.28;;;4.59;100.00
7832;BME280;3961;42.058;25.586;2023-03-20T05:28:24;62756.13;;;4.85;100.00
7832;BME280;3961;42.058;25.586;2023-03-20T05:30:50;62689.91;;;4.24;100.00
7832;BME280;3961;42.058;25.586;2023-03-20T05:33:15;62736.94;;;4.66;100.00
7832;BME280;3961;42.058;25.586;2023-03-20T05:35:41;62705.97;;;4.38;100.00
7832;BME280;3961;42.058;25.586;2023-03-20T05:38:06;62720.44;;;4.58;100.00
7832;BME280;3961;42.058;25.586;2023-03-20T05:40:32;62761.84;;;4.90;100.00
7832;BME280;3961;42.058;25.586;2023-03-20T05:42:57;62787.34;;;5.15;100.00
7832;BME280;3961;42.058;25.586;2023-03-20T05:45:22;62810.38;;;5.31;100.00
7832;BME280;3961;42.058;25.586;2023-03-20T05:47:48;62811.19;;;5.34;100.00
7832;BME280;3961;42.058;25.586;2023-03-20T05:50:14;62839.09;;;5.56;100.00
7832;BME280;3961;42.058;25.586;2023-03-20T05:52:39;62829.25;;;5.52;100.00
7832;BME280;3961;42.058;25.586;2023-03-20T05:55:05;62857.97;;;5.78;100.00
7832;BME280;3961;42.058;25.586;2023-03-20T05:57:30;62875.25;;;5.88;100.00
7832;BME280;3961;42.058;25.586;2023-03-20T05:59:56;62859.09;;;5.79;100.00
7832;BME280;3961;42.058;25.586;2023-03-20T06:02:22;62927.34;;;6.32;100.00
7832;BME280;3961;42.058;25.586;2023-03-20T06:04:47;62944.34;;;6.45;100.00
7832;BME280;3961;42.058;25.586;2023-03-20T06:07:13;62976.78;;;6.76;100.00
7832;BME280;3961;42.058;25.586;2023-03-20T06:09:38;62913.53;;;6.20;100.00
7832;BME280;3961;42.058;25.586;2023-03-20T06:12:04;62967.25;;;6.69;100.00
7832;BME280;3961;42.058;25.586;2023-03-20T06:14:29;62969.78;;;6.74;100.00
7832;BME280;3961;42.058;25.586;2023-03-20T06:16:55;62955.16;;;6.59;100.00
7832;BME280;3961;42.058;25.586;2023-03-20T06:19:21;62933.56;;;6.42;100.00
7832;BME280;3961;42.058;25.586;2023-03-20T06:21:47;62962.97;;;6.63;100.00
7832;BME280;3961;42.058;25.586;2023-03-20T06:24:13;62955.97;;;6.62;100.00
7832;BME280;3961;42.058;25.586;2023-03-20T06:26:39;62964.69;;;6.65;100.00
7832;BME280;3961;42.058;25.586;2023-03-20T06:29:05;62979.00;;;6.82;100.00
7832;BME280;3961;42.058;25.586;2023-03-20T06:31:30;62972.44;;;6.74;100.00
7832;BME280;3961;42.058;25.586;2023-03-20T06:33:56;62936.44;;;6.45;100.00
7832;BME280;3961;42.058;25.586;2023-03-20T06:36:22;62963.22;;;6.66;100.00
7832;BME280;3961;42.058;25.586;2023-03-20T06:38:48;62967.25;;;6.69;100.00
7832;BME280;3961;42.058;25.586;2023-03-20T06:41:13;62966.09;;;6.68;100.00
7832;BME280;3961;42.058;25.586;2023-03-20T06:43:39;63006.69;;;7.02;100.00
7832;BME280;3961;42.058;25.586;2023-03-20T06:46:07;62993.34;;;6.95;100.00
7832;BME280;3961;42.058;25.586;2023-03-20T06:48:32;62990.56;;;6.88;100.00
7832;BME280;3961;42.058;25.586;2023-03-20T06:50:58;63040.88;;;7.34;100.00
7832;BME280;3961;42.058;25.586;2023-03-20T06:53:24;63035.69;;;7.30;100.00
7832;BME280;3961;42.058;25.586;2023-03-20T06:55:51;63069.97;;;7.58;100.00
7832;BME280;3961;42.058;25.586;2023-03-20T06:58:17;63113.38;;;7.98;100.00
7832;BME280;3961;42.058;25.586;2023-03-20T07:00:42;63097.25;;;7.84;100.00
7832;BME280;3961;42.058;25.586;2023-03-20T07:03:08;63117.75;;;8.00;100.00
7832;BME280;3961;42.058;25.586;2023-03-20T07:05:34;63059.28;;;7.51;100.00
7832;BME280;3961;42.058;25.586;2023-03-20T07:08:00;63076.78;;;7.68;100.00
7832;BME280;3961;42.058;25.586;2023-03-20T07:10:26;63037.66;;;7.34;100.00
7832;BME280;3961;42.058;25.586;2023-03-20T07:12:52;63216.19;;;8.91;100.00
7832;BME280;3961;42.058;25.586;2023-03-20T07:15:20;63234.31;;;9.09;98.82
7832;BME280;3961;42.058;25.586;2023-03-20T07:17:45;63110.75;;;7.98;100.00
7832;BME280;3961;42.058;25.586;2023-03-20T07:20:11;63119.16;;;8.03;100.00
7832;BME280;3961;42.058;25.586;2023-03-20T07:22:38;63123.09;;;8.12;100.00
7832;BME280;3961;42.058;25.586;2023-03-20T07:25:04;63110.28;;;7.93;100.00
7832;BME280;3961;42.058;25.586;2023-03-20T07:27:30;63155.69;;;8.38;100.00
7832;BME280;3961;42.058;25.586;2023-03-20T07:29:56;63180.22;;;8.57;100.00
7832;BME280;3961;42.058;25.586;2023-03-20T07:32:21;63215.63;;;8.91;100.00
7832;BME280;3961;42.058;25.586;2023-03-20T07:34:47;63248.22;;;9.17;100.00
7832;BME280;3961;42.058;25.586;2023-03-20T07:37:14;63259.09;;;9.31;100.00
7832;BME280;3961;42.058;25.586;2023-03-20T07:39:40;63259.19;;;9.27;100.00
7832;BME280;3961;42.058;25.586;2023-03-20T07:42:05;63279.38;;;9.44;100.00
7832;BME280;3961;42.058;25.586;2023-03-20T07:44:31;63247.31;;;9.19;100.00
7832;BME280;3961;42.058;25.586;2023-03-20T07:46:56;63239.59;;;9.09;100.00
7832;BME280;3961;42.058;25.586;2023-03-20T07:49:22;63263.22;;;9.30;100.00
7832;BME280;3961;42.058;25.586;2023-03-20T07:51:48;63322.06;;;9.82;100.00
7832;BME280;3961;42.058;25.586;2023-03-20T07:54:14;63345.50;;;10.00;98.96
7832;BME280;3961;42.058;25.586;2023-03-20T07:56:41;63340.19;;;10.00;98.79
7832;BME280;3961;42.058;25.586;2023-03-20T07:59:06;63388.25;;;10.38;96.42
7832;BME280;3961;42.058;25.586;2023-03-20T08:01:32;63508.63;;;11.46;97.98
7832;BME280;3961;42.058;25.586;2023-03-20T08:03:58;63847.44;;;14.43;80.80
7832;BME280;3961;42.058;25.586;2023-03-20T08:06:24;63954.69;;;15.41;72.88
7832;BME280;3961;42.058;25.586;2023-03-20T08:08:49;64047.19;;;16.18;67.21
7832;BME280;3961;42.058;25.586;2023-03-20T08:11:18;64140.78;;;16.99;65.81
7832;BME280;3961;42.058;25.586;2023-03-20T08:13:44;64093.66;;;16.58;63.92
7832;BME280;3961;42.058;25.586;2023-03-20T08:16:10;63861.94;;;14.56;69.08
7832;BME280;3961;42.058;25.586;2023-03-20T08:18:36;63772.28;;;13.79;73.35
7832;BME280;3961;42.058;25.586;2023-03-20T08:21:01;63757.56;;;13.64;76.12
7832;BME280;3961;42.058;25.586;2023-03-20T08:23:27;63675.53;;;12.95;77.60
7832;BME280;3961;42.058;25.586;2023-03-20T08:25:53;63705.50;;;13.14;78.20
7832;BME280;3961;42.058;25.586;2023-03-20T08:28:19;63723.38;;;13.34;77.21
7832;BME280;3961;42.058;25.586;2023-03-20T08:30:46;63693.47;;;13.10;78.29
7832;BME280;3961;42.058;25.586;2023-03-20T08:33:12;63672.63;;;12.92;80.71
7832;BME280;3961;42.058;25.586;2023-03-20T08:35:38;63711.34;;;13.19;79.09
7832;BME280;3961;42.058;25.586;2023-03-20T08:38:04;63766.94;;;13.68;78.54
7832;BME280;3961;42.058;25.586;2023-03-20T08:40:30;63809.97;;;14.12;75.25
7832;BME280;3961;42.058;25.586;2023-03-20T08:42:56;63824.22;;;14.23;74.48
7832;BME280;3961;42.058;25.586;2023-03-20T08:45:22;63863.13;;;14.57;74.26
7832;BME280;3961;42.058;25.586;2023-03-20T08:47:51;63914.16;;;15.01;71.61
7832;BME280;3961;42.058;25.586;2023-03-20T08:50:17;63893.84;;;14.84;70.80
7832;BME280;3961;42.058;25.586;2023-03-20T08:52:43;63887.94;;;14.71;71.04
7832;BME280;3961;42.058;25.586;2023-03-20T08:55:10;63836.16;;;14.31;71.91
7832;BME280;3961;42.058;25.586;2023-03-20T08:57:35;63857.53;;;14.54;71.50
7832;BME280;3961;42.058;25.586;2023-03-20T09:00:03;63857.66;;;14.50;72.75
7832;BME280;3961;42.058;25.586;2023-03-20T09:02:30;63875.88;;;14.68;71.85
7832;BME280;3961;42.058;25.586;2023-03-20T09:04:56;63803.94;;;14.05;74.53
7832;BME280;3961;42.058;25.586;2023-03-20T09:07:22;63835.81;;;14.33;74.35
7832;BME280;3961;42.058;25.586;2023-03-20T09:09:47;63839.53;;;14.38;72.67
7832;BME280;3961;42.058;25.586;2023-03-20T09:12:13;63877.94;;;14.67;71.41
7832;BME280;3961;42.058;25.586;2023-03-20T09:14:38;63874.94;;;14.69;71.86
7832;BME280;3961;42.058;25.586;2023-03-20T09:17:04;63896.19;;;14.86;72.48
7832;BME280;3961;42.058;25.586;2023-03-20T09:19:30;63960.03;;;15.41;69.64
7832;BME280;3961;42.058;25.586;2023-03-20T09:21:56;64029.50;;;16.00;67.45
7832;BME280;3961;42.058;25.586;2023-03-20T09:24:22;64065.53;;;16.31;67.69
7832;BME280;3961;42.058;25.586;2023-03-20T09:26:48;64097.28;;;16.57;66.87
7832;BME280;3961;42.058;25.586;2023-03-20T09:29:13;64066.94;;;16.35;66.17
7832;BME280;3961;42.058;25.586;2023-03-20T09:31:39;64102.63;;;16.68;63.42
7832;BME280;3961;42.058;25.586;2023-03-20T09:34:05;64116.97;;;16.78;62.16
7832;BME280;3961;42.058;25.586;2023-03-20T09:36:31;64115.34;;;16.72;64.11
7832;BME280;3961;42.058;25.586;2023-03-20T09:38:57;64168.72;;;17.24;61.71
7832;BME280;3961;42.058;25.586;2023-03-20T09:41:24;64195.25;;;17.44;60.31
7832;BME280;3961;42.058;25.586;2023-03-20T09:46:46;64295.63;;;18.34;61.07
7832;BME280;3961;42.058;25.586;2023-03-20T09:51:50;64296.81;;;18.35;55.60
7832;BME280;3961;42.058;25.586;2023-03-20T09:54:24;64225.53;;;17.71;57.74
7832;BME280;3961;42.058;25.586;2023-03-20T09:56:53;64243.00;;;17.86;57.74
7832;BME280;3961;42.058;25.586;2023-03-20T09:59:20;64168.84;;;17.19;58.86
7832;BME280;3961;42.058;25.586;2023-03-20T10:02:05;64218.56;;;17.65;58.24
7832;BME280;3961;42.058;25.586;2023-03-20T10:04:32;64256.38;;;17.98;58.10
7832;BME280;3961;42.058;25.586;2023-03-20T10:07:02;64299.72;;;18.38;58.06
7832;BME280;3961;42.058;25.586;2023-03-20T10:09:29;64327.47;;;18.60;55.35
7832;BME280;3961;42.058;25.586;2023-03-20T10:14:47;64291.56;;;18.31;56.88
7832;BME280;3961;42.058;25.586;2023-03-20T10:17:42;64314.06;;;18.48;57.50
7832;BME280;3961;42.058;25.586;2023-03-20T10:22:48;64337.75;;;18.66;54.95
7832;BME280;3961;42.058;25.586;2023-03-20T10:25:23;64355.47;;;18.84;55.03
7832;BME280;3961;42.058;25.586;2023-03-20T10:27:51;64248.47;;;17.93;55.64
7832;BME280;3961;42.058;25.586;2023-03-20T10:39:01;64293.06;;;18.30;55.34
7832;BME280;3961;42.058;25.586;2023-03-20T10:41:32;64270.16;;;18.07;57.01
7832;BME280;3961;42.058;25.586;2023-03-20T10:44:01;64261.06;;;18.02;56.25
7832;BME280;3961;42.058;25.586;2023-03-20T10:46:32;64297.38;;;18.36;55.51
7832;BME280;3961;42.058;25.586;2023-03-20T10:49:20;64326.75;;;18.64;55.75
7832;BME280;3961;42.058;25.586;2023-03-20T10:52:01;64380.50;;;19.06;54.91
7832;BME280;3961;42.058;25.586;2023-03-20T10:54:35;64419.56;;;19.40;53.37
7832;BME280;3961;42.058;25.586;2023-03-20T10:57:05;64432.41;;;19.51;51.23
7832;BME280;3961;42.058;25.586;2023-03-20T10:59:39;64375.63;;;18.99;52.56
7832;BME280;3961;42.058;25.586;2023-03-20T11:02:11;64399.38;;;19.25;51.12
7832;BME280;3961;42.058;25.586;2023-03-20T11:04:37;64379.22;;;19.09;51.30
7832;BME280;3961;42.058;25.586;2023-03-20T11:09:37;64381.53;;;19.11;52.25
7832;BME280;3961;42.058;25.586;2023-03-20T11:12:03;64368.50;;;18.98;51.96
7832;BME280;3961;42.058;25.586;2023-03-20T11:14:35;64328.97;;;18.59;53.39
7832;BME280;3961;42.058;25.586;2023-03-20T11:17:03;64492.72;;;20.06;53.15
7832;BME280;3961;42.058;25.586;2023-03-20T11:19:34;64468.00;;;19.82;52.04
7832;BME280;3961;42.058;25.586;2023-03-20T11:24:44;64561.75;;;20.61;50.23
7832;BME280;3961;42.058;25.586;2023-03-20T11:27:25;64574.63;;;20.72;50.36
7832;BME280;3961;42.058;25.586;2023-03-20T11:29:51;64616.31;;;21.11;49.42
7832;BME280;3961;42.058;25.586;2023-03-20T11:32:30;64658.59;;;21.50;47.18
7832;BME280;3961;42.058;25.586;2023-03-20T11:35:09;64709.81;;;21.92;46.97
7832;BME280;3961;42.058;25.586;2023-03-20T11:37:35;64703.63;;;21.89;46.76
7832;BME280;3961;42.058;25.586;2023-03-20T11:40:15;64634.44;;;21.27;46.61
7832;BME280;3961;42.058;25.586;2023-03-20T11:43:03;64596.66;;;20.96;47.80
7832;BME280;3961;42.058;25.586;2023-03-20T11:45:37;64526.94;;;20.33;48.85
7832;BME280;3961;42.058;25.586;2023-03-20T11:48:05;64540.41;;;20.45;50.70
7832;BME280;3961;42.058;25.586;2023-03-20T11:52:57;64520.28;;;20.25;49.06
7832;BME280;3961;42.058;25.586;2023-03-20T11:55:33;64536.66;;;20.39;50.41
7832;BME280;3961;42.058;25.586;2023-03-20T11:58:04;64526.25;;;20.37;48.83
7832;BME280;3961;42.058;25.586;2023-03-20T12:00:37;64460.66;;;19.78;50.02
7832;BME280;3961;42.058;25.586;2023-03-20T12:06:18;64481.41;;;19.94;49.22
7832;BME280;3961;42.058;25.586;2023-03-20T12:08:49;64512.13;;;20.18;49.03
7832;BME280;3961;42.058;25.586;2023-03-20T12:13:52;64481.19;;;19.91;50.87
7832;BME280;3961;42.058;25.586;2023-03-20T12:16:21;64478.72;;;19.94;50.58
7832;BME280;3961;42.058;25.586;2023-03-20T12:19:00;64533.97;;;20.39;49.16
7832;BME280;3961;42.058;25.586;2023-03-20T12:27:25;64503.81;;;20.16;48.69
7832;BME280;3961;42.058;25.586;2023-03-20T12:30:09;64522.25;;;20.29;48.73
7832;BME280;3961;42.058;25.586;2023-03-20T12:32:45;64531.84;;;20.40;48.29
7832;BME280;3961;42.058;25.586;2023-03-20T12:37:49;64577.75;;;20.77;46.91
7832;BME280;3961;42.058;25.586;2023-03-20T12:40:16;64552.88;;;20.58;47.23
7832;BME280;3961;42.058;25.586;2023-03-20T12:45:35;64624.13;;;21.20;45.90
7832;BME280;3961;42.058;25.586;2023-03-20T12:48:46;64666.94;;;21.53;45.77
7832;BME280;3961;42.058;25.586;2023-03-20T12:51:34;64612.56;;;21.05;46.46
7832;BME280;3961;42.058;25.586;2023-03-20T12:59:28;64504.97;;;20.17;47.55
7832;BME280;3961;42.058;25.586;2023-03-20T13:20:54;64535.72;;;20.41;46.72
7832;BME280;3961;42.058;25.586;2023-03-20T13:23:28;64570.16;;;20.71;46.65
7832;BME280;3961;42.058;25.586;2023-03-20T13:26:12;64597.97;;;20.93;45.15
7832;BME280;3961;42.058;25.586;2023-03-20T13:28:54;64540.97;;;20.45;45.42
7832;BME280;3961;42.058;25.586;2023-03-20T13:31:43;64545.41;;;20.47;45.62
7832;BME280;3961;42.058;25.586;2023-03-20T13:41:44;64619.22;;;21.13;43.21
7832;BME280;3961;42.058;25.586;2023-03-20T13:44:12;64677.47;;;21.62;41.87
7832;BME280;3961;42.058;25.586;2023-03-20T13:46:53;64684.34;;;21.72;40.22
7832;BME280;3961;42.058;25.586;2023-03-20T13:49:42;64712.88;;;21.90;39.10
7832;BME280;3961;42.058;25.586;2023-03-20T13:52:19;64682.34;;;21.68;39.66
7832;BME280;3961;42.058;25.586;2023-03-20T13:57:30;64673.00;;;21.60;40.58
7832;BME280;3961;42.058;25.586;2023-03-20T14:00:10;64687.75;;;21.68;41.17
7832;BME280;3961;42.058;25.586;2023-03-20T14:03:07;64733.22;;;22.12;40.52
7832;BME280;3961;42.058;25.586;2023-03-20T14:05:38;64742.59;;;22.21;38.15
7832;BME280;3961;42.058;25.586;2023-03-20T14:14:18;64761.53;;;22.39;35.97
7832;BME280;3961;42.058;25.586;2023-03-20T14:17:02;64737.78;;;22.21;35.16
7832;BME280;3961;42.058;25.586;2023-03-20T14:19:33;64737.31;;;22.16;34.22
7832;BME280;3961;42.058;25.586;2023-03-20T14:22:00;64750.19;;;22.27;32.84
7832;BME280;3961;42.058;25.586;2023-03-20T14:24:27;64742.72;;;22.16;31.94
7832;BME280;3961;42.058;25.586;2023-03-20T14:26:58;64749.38;;;22.24;31.85
7832;BME280;3961;42.058;25.586;2023-03-20T14:29:31;64768.72;;;22.41;33.28
7832;BME280;3961;42.058;25.586;2023-03-20T14:35:21;64783.91;;;22.54;30.86
7832;BME280;3961;42.058;25.586;2023-03-20T14:40:52;64760.88;;;22.32;32.79
7832;BME280;3961;42.058;25.586;2023-03-20T14:51:56;64681.78;;;21.68;33.22
7832;BME280;3961;42.058;25.586;2023-03-20T14:54:28;64679.78;;;21.64;32.25
7832;BME280;3961;42.058;25.586;2023-03-20T14:57:07;64684.25;;;21.65;32.86
7832;BME280;3961;42.058;25.586;2023-03-20T14:59:33;64685.28;;;21.71;33.12
7832;BME280;3961;42.058;25.586;2023-03-20T15:02:00;64687.03;;;21.72;33.39
7832;BME280;3961;42.058;25.586;2023-03-20T15:04:37;64706.69;;;21.87;38.71
7832;BME280;3961;42.058;25.586;2023-03-20T15:07:16;64721.19;;;22.04;33.71
7832;BME280;3961;42.058;25.586;2023-03-20T15:09:46;64707.50;;;21.90;33.78
7832;BME280;3961;42.058;25.586;2023-03-20T15:12:16;64698.13;;;21.82;34.29
7832;BME280;3961;42.058;25.586;2023-03-20T15:14:46;64695.78;;;21.80;34.50
7832;BME280;3961;42.058;25.586;2023-03-20T15:17:20;64668.31;;;21.56;34.88
7832;BME280;3961;42.058;25.586;2023-03-20T15:19:47;64647.53;;;21.40;35.83
7832;BME280;3961;42.058;25.586;2023-03-20T15:22:17;64663.66;;;21.52;36.56
7832;BME280;3961;42.058;25.586;2023-03-20T15:24:54;64666.94;;;21.53;37.60
7832;BME280;3961;42.058;25.586;2023-03-20T15:27:22;64635.59;;;21.28;39.78
7832;BME280;3961;42.058;25.586;2023-03-20T15:29:53;64597.03;;;20.94;40.94
7832;BME280;3961;42.058;25.586;2023-03-20T15:32:22;64629.16;;;21.22;42.70
7832;BME280;3961;42.058;25.586;2023-03-20T15:34:48;64615.50;;;21.08;42.95
7832;BME280;3961;42.058;25.586;2023-03-20T15:37:18;64550.31;;;20.54;44.51
7832;BME280;3961;42.058;25.586;2023-03-20T15:39:48;64533.38;;;20.39;44.74
7832;BME280;3961;42.058;25.586;2023-03-20T15:42:16;64532.81;;;20.38;45.70
7832;BME280;3961;42.058;25.586;2023-03-20T15:44:45;64486.31;;;20.00;45.95